Sheridan, Colorado
Current Conditions -  °F | °C
As of 6:53 AM on Monday 20 Oct 2014 (Local Time) from KAPA Reporting Station
Clear Clear  
Wind Chill: 43°   Ceiling: Unl
Heat Index: 46°   Visibility: 10mi
Dew Point: 35°   Wind: 6mph
Humidity: 66%   Direction: 160°SSE
Pressure: 30.18"   Gusts: NA
Location:  39.6467°N, 105.009°W
Report Text: KAPA 201253Z 16005KT 10SM CLR 08/02 A3018 RMK AO2 SLP195 T00780017
Loading
Personal Weather Stations






























Interactive Weather Map
Tropical Storm Tracking
New forecast layout! Learn more

10-Day Weather Forecast

Advertisements
Track Severe Weather on mobile